Terminal Aerodrome Forecast
Issued by NWS Billings, MT

Home | Current Version | Previous Version | Graphics & Text | Print | Product List | Glossary On
Versions: 1 2 3 4 5 6 7 8 9 10 11 12 13 14 15 16 17 18 19 20 21 22 23 24 25 26 27 28 29 30 31 32 33 34 35 36 37 38 39 40 41 42 43 44 45 46 47 48 49 50
000
FTUS45 KBYZ 232121 AAA
TAFMLS
TAF AMD
KMLS 232121Z 2321/2418 03007KT 2SM BR OVC002
     FM232300 02005KT 3SM BR BKN007
     FM240500 01006KT 5SM -SN BR OVC030
     FM241500 30009KT P6SM OVC040=

USA.gov is the U.S. government's official web portal to all federal, state and local government web resources and services.